createdAt,value
2022-08-28T00:00:32.378Z,15.93
2022-08-28T00:03:02.090Z,14.98
2022-08-28T00:05:32.570Z,16.92
2022-08-28T00:08:01.196Z,16.38
2022-08-28T00:10:30.575Z,15.75
2022-08-28T00:12:58.717Z,15.85
2022-08-28T00:15:30.763Z,16.75
2022-08-28T00:17:59.600Z,15.75
2022-08-28T00:20:29.616Z,16.88
2022-08-28T00:22:57.571Z,16.50
2022-08-28T00:25:30.376Z,17.30
2022-08-28T00:28:08.403Z,17.05
2022-08-28T00:30:41.008Z,16.38
2022-08-28T00:33:12.622Z,16.73
2022-08-28T00:35:43.424Z,17.98
2022-08-28T00:38:12.246Z,16.90
2022-08-28T00:40:42.814Z,15.65
2022-08-28T00:43:23.151Z,17.88
2022-08-28T00:45:50.963Z,16.90
2022-08-28T00:48:22.622Z,17.50
2022-08-28T00:51:09.209Z,19.65
2022-08-28T00:53:39.557Z,19.17
2022-08-28T00:56:13.316Z,18.17
2022-08-28T01:01:10.982Z,17.15
2022-08-28T01:03:39.079Z,18.27
2022-08-28T01:06:11.166Z,18.73
2022-08-28T01:08:41.697Z,18.38
2022-08-28T01:11:13.393Z,18.80
2022-08-28T01:13:47.007Z,18.70
2022-08-28T01:16:16.171Z,18.38
2022-08-28T01:18:44.971Z,19.15
2022-08-28T01:21:23.760Z,17.73
2022-08-28T01:23:57.695Z,19.10
2022-08-28T01:26:28.256Z,19.10
2022-08-28T01:28:58.219Z,19.38
2022-08-28T01:31:27.649Z,20.15
2022-08-28T01:33:55.686Z,21.08
2022-08-28T01:36:24.889Z,21.05
2022-08-28T01:39:00.024Z,20.55
2022-08-28T01:41:29.524Z,20.25
2022-08-28T01:43:57.513Z,21.95
2022-08-28T01:46:25.558Z,22.67
2022-08-28T01:48:53.303Z,21.85
2022-08-28T01:51:24.507Z,22.05
2022-08-28T01:53:52.858Z,21.77
2022-08-28T01:56:22.109Z,22.77
2022-08-28T01:58:50.303Z,23.50
2022-08-28T02:01:20.793Z,22.13
2022-08-28T02:03:50.142Z,21.40
2022-08-28T02:06:19.587Z,22.50
2022-08-28T02:08:49.731Z,22.85
2022-08-28T02:11:17.674Z,23.17
2022-08-28T02:13:46.819Z,23.63
2022-08-28T02:16:20.800Z,22.88
2022-08-28T02:18:49.919Z,24.30
2022-08-28T02:21:17.715Z,25.08
2022-08-28T02:23:46.305Z,24.60
2022-08-28T02:26:15.841Z,23.92
2022-08-28T02:28:43.969Z,22.52
2022-08-28T02:31:13.437Z,21.73
2022-08-28T02:33:43.481Z,21.92
2022-08-28T02:36:13.664Z,22.60
2022-08-28T02:38:41.818Z,22.83
2022-08-28T02:41:10.063Z,24.02
2022-08-28T02:43:37.965Z,24.30
2022-08-28T02:46:06.997Z,24.17
2022-08-28T02:48:38.443Z,24.77
2022-08-28T02:51:09.367Z,25.73
2022-08-28T02:53:37.284Z,25.10
2022-08-28T02:56:06.059Z,24.55
2022-08-28T02:58:35.358Z,22.60
2022-08-28T03:01:04.893Z,23.63
2022-08-28T03:03:33.441Z,22.30
2022-08-28T03:06:03.848Z,23.33
2022-08-28T03:08:32.267Z,24.00
2022-08-28T03:11:00.393Z,23.05
2022-08-28T03:13:28.729Z,21.23
2022-08-28T03:15:57.160Z,22.35
2022-08-28T03:18:25.660Z,22.58
2022-08-28T03:20:55.487Z,22.10
2022-08-28T03:23:27.811Z,20.50
2022-08-28T03:25:58.176Z,21.48
2022-08-28T03:28:27.943Z,19.98
2022-08-28T03:30:56.123Z,18.88
2022-08-28T03:33:23.997Z,19.33
2022-08-28T03:35:52.284Z,18.88
2022-08-28T03:38:21.417Z,19.77
2022-08-28T03:40:51.671Z,21.33
2022-08-28T03:43:22.507Z,21.83
2022-08-28T03:45:57.223Z,19.00
2022-08-28T03:48:25.385Z,18.55
2022-08-28T03:50:54.438Z,17.98
2022-08-28T03:53:24.614Z,19.17
2022-08-28T03:55:54.670Z,19.30
2022-08-28T03:58:23.366Z,19.60
2022-08-28T04:00:51.360Z,19.52
2022-08-28T04:03:19.669Z,20.20
2022-08-28T04:05:48.451Z,19.27
2022-08-28T04:08:17.709Z,19.80
2022-08-28T04:10:46.587Z,17.65
2022-08-28T04:13:17.637Z,19.05
2022-08-28T04:15:46.264Z,18.95
2022-08-28T04:18:14.400Z,19.17
2022-08-28T04:20:42.563Z,19.70
2022-08-28T04:23:14.365Z,18.50
2022-08-28T04:25:42.283Z,18.60
2022-08-28T04:28:10.590Z,19.98
2022-08-28T04:30:41.834Z,17.00
2022-08-28T04:33:10.518Z,18.88
2022-08-28T04:35:38.536Z,17.42
2022-08-28T04:38:06.416Z,17.95
2022-08-28T04:40:34.361Z,17.95
2022-08-28T04:43:02.202Z,18.17
2022-08-28T04:45:31.628Z,19.80
2022-08-28T04:48:03.338Z,18.17
2022-08-28T04:50:33.498Z,18.77
2022-08-28T04:53:01.352Z,18.13
2022-08-28T04:55:50.042Z,18.17
2022-08-28T04:58:20.318Z,18.95
2022-08-28T05:00:53.239Z,17.65
2022-08-28T05:03:23.112Z,17.65
2022-08-28T05:05:53.053Z,18.30
2022-08-28T05:08:26.905Z,18.42
2022-08-28T05:10:56.020Z,18.05
2022-08-28T05:13:23.895Z,17.30
2022-08-28T05:15:53.093Z,18.60
2022-08-28T05:18:24.249Z,17.90
2022-08-28T05:20:52.170Z,18.40
2022-08-28T05:23:19.926Z,18.88
2022-08-28T05:25:53.356Z,17.10
2022-08-28T05:28:24.769Z,17.58
2022-08-28T05:30:53.506Z,16.23
2022-08-28T05:33:22.730Z,18.33
2022-08-28T05:35:50.573Z,16.50
2022-08-28T05:38:18.388Z,17.00
2022-08-28T05:40:49.353Z,17.80
2022-08-28T05:43:18.137Z,18.02
2022-08-28T05:45:45.986Z,17.52
2022-08-28T05:48:16.122Z,18.08
2022-08-28T05:50:47.627Z,18.50
2022-08-28T05:53:17.929Z,17.13
2022-08-28T05:55:46.522Z,17.25
2022-08-28T05:58:34.776Z,16.45
2022-08-28T06:01:12.749Z,16.40
2022-08-28T06:03:42.488Z,16.83
2022-08-28T06:06:12.971Z,16.27
2022-08-28T06:08:58.043Z,17.23
2022-08-28T06:11:27.119Z,15.57
2022-08-28T06:13:59.677Z,15.32
2022-08-28T06:16:31.373Z,19.23
2022-08-28T06:18:59.404Z,18.35
2022-08-28T06:21:29.408Z,17.98
2022-08-28T06:23:57.155Z,17.45
2022-08-28T06:26:24.940Z,17.05
2022-08-28T06:28:53.562Z,17.83
2022-08-28T06:31:24.705Z,17.20
2022-08-28T06:33:54.590Z,16.13
2022-08-28T06:36:22.736Z,16.77
2022-08-28T06:38:51.902Z,15.70
2022-08-28T06:41:19.863Z,16.35
2022-08-28T06:43:47.628Z,16.42
2022-08-28T06:46:15.543Z,18.48
2022-08-28T06:48:43.395Z,18.67
2022-08-28T06:51:13.405Z,16.05
2022-08-28T06:53:43.038Z,15.50
2022-08-28T06:56:25.576Z,16.58
2022-08-28T06:58:55.793Z,16.43
2022-08-28T07:01:27.037Z,16.15
2022-08-28T07:03:59.010Z,15.65
2022-08-28T07:06:26.871Z,14.10
2022-08-28T07:08:54.620Z,15.13
2022-08-28T07:11:27.579Z,14.63
2022-08-28T07:13:56.622Z,14.90
2022-08-28T07:16:26.902Z,15.55
2022-08-28T07:18:55.339Z,13.48
2022-08-28T07:21:23.575Z,16.33
2022-08-28T07:23:51.422Z,13.82
2022-08-28T07:26:24.354Z,14.40
2022-08-28T07:28:59.511Z,12.75
2022-08-28T07:31:40.656Z,17.73
2022-08-28T07:34:09.463Z,15.70
2022-08-28T07:36:37.806Z,13.38
2022-08-28T07:39:05.987Z,13.73
2022-08-28T07:41:39.010Z,12.52
2022-08-28T07:44:29.313Z,11.93
2022-08-28T07:46:59.133Z,12.05
2022-08-28T07:49:27.436Z,11.70
2022-08-28T07:51:55.311Z,12.32
2022-08-28T07:54:23.292Z,12.05
2022-08-28T07:56:53.631Z,11.90
2022-08-28T07:59:22.006Z,11.27
2022-08-28T08:01:51.782Z,11.80
2022-08-28T08:04:21.207Z,12.07
2022-08-28T08:06:50.625Z,11.52
2022-08-28T08:09:22.815Z,10.73
2022-08-28T08:11:52.266Z,10.82
2022-08-28T08:14:20.253Z,10.90
2022-08-28T08:16:49.205Z,9.98
2022-08-28T08:19:18.858Z,10.80
2022-08-28T08:21:54.652Z,10.25
2022-08-28T08:24:26.447Z,10.77
2022-08-28T08:26:59.542Z,11.10
2022-08-28T08:29:29.914Z,10.27
2022-08-28T08:31:59.112Z,10.73
2022-08-28T08:34:27.010Z,10.15
2022-08-28T08:36:55.362Z,9.95
2022-08-28T08:39:23.252Z,9.40
2022-08-28T08:41:54.314Z,10.60
2022-08-28T08:44:33.294Z,13.40
2022-08-28T08:47:14.047Z,11.07
2022-08-28T08:49:50.113Z,9.88
2022-08-28T08:52:35.867Z,9.07
2022-08-28T08:55:22.062Z,9.52
2022-08-28T08:57:55.107Z,9.20
2022-08-28T09:00:24.826Z,8.30
2022-08-28T09:02:59.674Z,9.23
2022-08-28T09:05:43.726Z,8.63
2022-08-28T09:08:22.283Z,8.98
2022-08-28T09:11:01.114Z,8.75
2022-08-28T09:13:39.509Z,8.68
2022-08-28T09:16:18.034Z,8.57
2022-08-28T09:18:48.076Z,9.00
2022-08-28T09:21:29.197Z,9.70
2022-08-28T09:24:01.933Z,7.80
2022-08-28T09:26:34.200Z,8.68
2022-08-28T09:29:05.086Z,9.82
2022-08-28T09:31:37.273Z,25.85
2022-08-28T09:34:20.987Z,8.68
2022-08-28T09:36:48.787Z,8.77
2022-08-28T09:39:19.757Z,8.23
2022-08-28T09:42:11.301Z,7.90
2022-08-28T09:44:51.985Z,8.45
2022-08-28T09:47:46.981Z,8.18
2022-08-28T09:50:34.652Z,8.75
2022-08-28T09:53:18.064Z,9.23
2022-08-28T09:55:54.912Z,7.90
2022-08-28T09:58:23.455Z,8.23
2022-08-28T10:00:56.977Z,8.35
2022-08-28T10:03:30.823Z,8.35
2022-08-28T10:08:51.800Z,7.18
2022-08-28T10:11:26.256Z,7.18
2022-08-28T10:14:08.809Z,6.72
2022-08-28T10:16:48.093Z,6.45
2022-08-28T10:19:27.692Z,6.18
2022-08-28T10:22:05.401Z,6.82
2022-08-28T10:24:53.097Z,5.32
2022-08-28T10:27:36.040Z,6.40
2022-08-28T10:30:12.519Z,5.90
2022-08-28T10:32:59.144Z,5.40
2022-08-28T10:35:40.857Z,5.32
2022-08-28T10:38:13.487Z,5.05
2022-08-28T10:40:48.577Z,5.03
2022-08-28T10:43:20.229Z,5.72
2022-08-28T10:45:51.536Z,4.90
2022-08-28T10:48:24.989Z,5.40
2022-08-28T10:53:28.918Z,5.65
2022-08-28T10:55:59.438Z,4.85
2022-08-28T10:58:31.203Z,5.00
2022-08-28T11:01:03.195Z,5.53
2022-08-28T11:03:35.822Z,5.50
2022-08-28T11:06:11.411Z,4.67
2022-08-28T11:08:40.659Z,5.50
2022-08-28T11:11:14.766Z,5.10
2022-08-28T11:13:50.832Z,5.20
2022-08-28T11:16:22.079Z,4.78
2022-08-28T11:19:20.026Z,4.70
2022-08-28T11:21:54.036Z,5.57
2022-08-28T11:24:36.258Z,5.43
2022-08-28T11:27:22.327Z,5.90
2022-08-28T11:30:35.300Z,5.40
2022-08-28T11:33:09.845Z,5.78
2022-08-28T11:35:59.043Z,5.50
2022-08-28T11:39:04.924Z,5.60
2022-08-28T11:41:36.362Z,5.68
2022-08-28T11:44:28.452Z,5.78
2022-08-28T11:47:16.721Z,6.97
2022-08-28T11:49:46.762Z,5.45
2022-08-28T11:52:34.442Z,5.53
2022-08-28T11:55:14.572Z,5.40
2022-08-28T12:00:32.886Z,4.25
2022-08-28T12:03:12.020Z,4.60
2022-08-28T12:05:47.937Z,4.13
2022-08-28T12:08:48.882Z,4.38
2022-08-28T12:11:49.514Z,4.70
2022-08-28T12:15:02.096Z,4.57
2022-08-28T12:17:57.174Z,4.63
2022-08-28T12:20:36.237Z,4.07
2022-08-28T12:23:42.896Z,4.60
2022-08-28T12:26:20.747Z,4.30
2022-08-28T12:28:52.155Z,4.05
2022-08-28T12:32:03.865Z,4.38
2022-08-28T12:34:43.618Z,4.13
2022-08-28T12:37:35.781Z,4.60
2022-08-28T12:40:23.085Z,4.70
2022-08-28T12:42:55.607Z,4.28
2022-08-28T12:45:28.861Z,4.05
2022-08-28T12:48:00.043Z,4.13
2022-08-28T12:50:31.621Z,4.15
2022-08-28T12:53:01.431Z,4.10
2022-08-28T12:55:31.228Z,3.83
2022-08-28T12:57:59.378Z,4.10
2022-08-28T13:00:34.852Z,4.30
2022-08-28T13:03:04.056Z,4.10
2022-08-28T13:05:34.849Z,4.65
2022-08-28T13:08:05.356Z,4.50
2022-08-28T13:10:38.382Z,4.10
2022-08-28T13:13:10.801Z,4.47
2022-08-28T13:15:51.369Z,3.83
2022-08-28T13:18:42.617Z,3.95
2022-08-28T13:21:34.884Z,4.25
2022-08-28T13:24:26.235Z,4.43
2022-08-28T13:27:05.631Z,4.22
2022-08-28T13:29:34.047Z,4.35
2022-08-28T13:32:04.085Z,4.10
2022-08-28T13:34:34.635Z,4.40
2022-08-28T13:37:07.311Z,4.10
2022-08-28T13:39:43.212Z,4.03
2022-08-28T13:42:15.178Z,4.25
2022-08-28T13:44:48.532Z,4.18
2022-08-28T13:47:17.224Z,4.50
2022-08-28T13:49:45.055Z,4.25
2022-08-28T13:52:13.148Z,4.10
2022-08-28T13:54:41.607Z,3.80
2022-08-28T13:57:13.378Z,4.55
2022-08-28T13:59:41.386Z,4.00
2022-08-28T14:02:30.663Z,3.83
2022-08-28T14:04:58.728Z,4.10
2022-08-28T14:07:26.553Z,4.20
2022-08-28T14:09:56.546Z,4.25
2022-08-28T14:12:32.604Z,3.88
2022-08-28T14:15:02.028Z,3.97
2022-08-28T14:17:29.988Z,4.03
2022-08-28T14:19:59.669Z,4.05
2022-08-28T14:22:27.695Z,3.65
2022-08-28T14:24:55.511Z,3.58
2022-08-28T14:27:23.530Z,3.55
2022-08-28T14:29:53.431Z,4.68
2022-08-28T14:32:21.533Z,4.20
2022-08-28T14:34:50.548Z,4.55
2022-08-28T14:37:19.217Z,3.90
2022-08-28T14:39:47.913Z,4.28
2022-08-28T14:42:17.728Z,3.72
2022-08-28T14:44:45.636Z,3.75
2022-08-28T14:47:14.820Z,3.88
2022-08-28T14:49:42.753Z,3.95
2022-08-28T14:52:10.580Z,3.90
2022-08-28T14:54:40.227Z,4.32
2022-08-28T14:57:08.071Z,4.05
2022-08-28T14:59:36.177Z,3.70
2022-08-28T15:02:04.048Z,4.05
2022-08-28T15:04:37.673Z,4.40
2022-08-28T15:09:36.946Z,3.80
2022-08-28T15:12:05.525Z,4.07
2022-08-28T15:14:33.402Z,4.97
2022-08-28T15:17:01.319Z,4.00
2022-08-28T15:19:29.986Z,4.70
2022-08-28T15:21:59.889Z,4.50
2022-08-28T15:24:30.889Z,5.15
2022-08-28T15:26:59.581Z,4.10
2022-08-28T15:29:28.334Z,4.35
2022-08-28T15:31:56.985Z,4.38
2022-08-28T15:34:26.811Z,4.20
2022-08-28T15:36:56.150Z,4.40
2022-08-28T15:42:37.161Z,4.13
2022-08-28T15:45:05.662Z,3.72
2022-08-28T15:47:33.454Z,3.95
2022-08-28T15:50:01.357Z,4.13
2022-08-28T15:52:29.161Z,3.90
2022-08-28T15:54:58.320Z,4.28
2022-08-28T15:57:26.061Z,4.22
2022-08-28T15:59:54.373Z,4.15
2022-08-28T16:02:24.158Z,3.90
2022-08-28T16:04:52.801Z,3.80
2022-08-28T16:07:22.125Z,4.15
2022-08-28T16:09:50.551Z,4.28
2022-08-28T16:12:20.482Z,4.00
2022-08-28T16:14:48.721Z,3.90
2022-08-28T16:17:16.604Z,4.22
2022-08-28T16:19:45.001Z,4.25
2022-08-28T16:22:15.719Z,4.72
2022-08-28T16:24:44.042Z,4.50
2022-08-28T16:27:15.386Z,3.80
2022-08-28T16:29:45.226Z,4.18
2022-08-28T16:32:13.569Z,4.55
2022-08-28T16:34:44.504Z,4.35
2022-08-28T16:37:12.909Z,4.32
2022-08-28T16:39:40.756Z,4.45
2022-08-28T16:42:08.836Z,4.88
2022-08-28T16:44:37.410Z,5.90
2022-08-28T16:47:06.901Z,5.07
2022-08-28T16:49:34.845Z,5.20
2022-08-28T16:52:03.010Z,4.85
2022-08-28T16:54:30.779Z,5.47
2022-08-28T16:56:58.661Z,7.97
2022-08-28T16:59:26.476Z,5.13
2022-08-28T17:01:54.603Z,4.53
2022-08-28T17:04:24.137Z,6.22
2022-08-28T17:06:53.243Z,5.45
2022-08-28T17:09:23.445Z,4.20
2022-08-28T17:11:53.908Z,4.50
2022-08-28T17:14:22.277Z,4.70
2022-08-28T17:16:51.208Z,4.70
2022-08-28T17:19:20.905Z,4.88
2022-08-28T17:22:07.577Z,4.70
2022-08-28T17:24:35.413Z,4.72
2022-08-28T17:27:05.698Z,5.30
2022-08-28T17:29:34.597Z,4.28
2022-08-28T17:32:02.611Z,5.13
2022-08-28T17:34:33.121Z,4.30
2022-08-28T17:37:02.847Z,5.10
2022-08-28T17:39:30.744Z,4.50
2022-08-28T17:41:58.651Z,4.70
2022-08-28T17:44:26.474Z,5.07
2022-08-28T17:46:54.341Z,4.85
2022-08-28T17:49:22.666Z,4.82
2022-08-28T17:51:51.023Z,5.30
2022-08-28T17:54:24.061Z,4.70
2022-08-28T17:56:56.066Z,5.13
2022-08-28T17:59:26.659Z,5.18
2022-08-28T18:01:54.770Z,4.78
2022-08-28T18:04:24.668Z,4.70
2022-08-28T18:06:54.318Z,4.88
2022-08-28T18:09:24.922Z,5.03
2022-08-28T18:11:53.056Z,5.30
2022-08-28T18:14:21.565Z,6.60
2022-08-28T18:16:49.496Z,6.10
2022-08-28T18:19:17.365Z,5.60
2022-08-28T18:21:45.277Z,5.38
2022-08-28T18:24:14.010Z,5.70
2022-08-28T18:26:43.785Z,5.07
2022-08-28T18:29:14.469Z,5.07
2022-08-28T18:31:43.291Z,5.82
2022-08-28T18:34:11.542Z,5.18
2022-08-28T18:36:41.488Z,5.68
2022-08-28T18:39:09.748Z,8.85
2022-08-28T18:41:44.183Z,8.82
2022-08-28T18:44:15.151Z,5.50
2022-08-28T18:46:44.651Z,5.75
2022-08-28T18:49:13.437Z,6.18
2022-08-28T18:51:43.340Z,5.88
2022-08-28T18:54:11.240Z,5.30
2022-08-28T18:56:40.853Z,5.45
2022-08-28T18:59:09.248Z,5.38
2022-08-28T19:01:38.708Z,5.10
2022-08-28T19:04:06.823Z,5.70
2022-08-28T19:06:35.498Z,5.25
2022-08-28T19:09:06.759Z,4.93
2022-08-28T19:11:35.817Z,5.80
2022-08-28T19:14:04.213Z,7.10
2022-08-28T19:16:32.735Z,6.40
2022-08-28T19:19:02.357Z,5.70
2022-08-28T19:21:30.757Z,7.68
2022-08-28T19:23:58.805Z,9.48
2022-08-28T19:26:27.854Z,6.28
2022-08-28T19:28:56.084Z,5.40
2022-08-28T19:31:28.348Z,6.00
2022-08-28T19:33:59.594Z,6.10
2022-08-28T19:36:30.308Z,5.80
2022-08-28T19:38:58.903Z,5.78
2022-08-28T19:41:27.471Z,6.00
2022-08-28T19:43:55.325Z,6.22
2022-08-28T19:46:25.338Z,6.38
2022-08-28T19:48:54.060Z,6.45
2022-08-28T19:51:24.347Z,6.47
2022-08-28T19:53:58.208Z,6.53
2022-08-28T19:56:27.950Z,6.15
2022-08-28T19:58:58.325Z,7.00
2022-08-28T20:01:26.319Z,6.53
2022-08-28T20:03:54.150Z,5.75
2022-08-28T20:06:21.980Z,6.63
2022-08-28T20:08:49.986Z,5.90
2022-08-28T20:11:24.680Z,6.47
2022-08-28T20:13:53.234Z,6.25
2022-08-28T20:16:21.442Z,6.43
2022-08-28T20:18:49.789Z,6.13
2022-08-28T20:21:18.694Z,6.32
2022-08-28T20:23:54.022Z,6.47
2022-08-28T20:26:23.201Z,6.32
2022-08-28T20:28:56.095Z,7.20
2022-08-28T20:31:24.033Z,6.40
2022-08-28T20:33:52.016Z,6.03
2022-08-28T20:36:21.414Z,6.75
2022-08-28T20:38:49.273Z,6.68
2022-08-28T20:41:19.200Z,6.40
2022-08-28T20:43:49.016Z,6.75
2022-08-28T20:46:17.621Z,6.53
2022-08-28T20:48:45.674Z,7.10
2022-08-28T20:51:13.612Z,6.45
2022-08-28T20:53:41.388Z,7.22
2022-08-28T20:56:11.127Z,6.60
2022-08-28T20:58:39.703Z,6.05
2022-08-28T21:01:09.121Z,6.10
2022-08-28T21:03:36.914Z,5.55
2022-08-28T21:06:05.028Z,5.30
2022-08-28T21:08:32.804Z,5.00
2022-08-28T21:11:00.618Z,4.65
2022-08-28T21:13:28.445Z,5.10
2022-08-28T21:15:56.357Z,4.80
2022-08-28T21:18:25.575Z,4.70
2022-08-28T21:20:55.534Z,4.72
2022-08-28T21:23:24.337Z,5.10
2022-08-28T21:25:52.096Z,6.22
2022-08-28T21:28:19.912Z,5.70
2022-08-28T21:30:47.802Z,5.90
2022-08-28T21:33:15.708Z,5.20
2022-08-28T21:35:46.357Z,5.18
2022-08-28T21:38:14.319Z,5.55
2022-08-28T21:40:42.544Z,5.88
2022-08-28T21:43:10.401Z,5.25
2022-08-28T21:45:38.313Z,5.60
2022-08-28T21:48:06.368Z,5.63
2022-08-28T21:50:34.147Z,5.97
2022-08-28T21:53:03.332Z,6.20
2022-08-28T21:55:31.089Z,6.55
2022-08-28T21:57:58.914Z,7.40
2022-08-28T22:00:26.701Z,7.75
2022-08-28T22:02:54.537Z,7.57
2022-08-28T22:05:22.538Z,7.47
2022-08-28T22:07:50.365Z,6.40
2022-08-28T22:10:19.498Z,7.88
2022-08-28T22:12:50.805Z,7.15
2022-08-28T22:15:18.747Z,7.15
2022-08-28T22:17:46.850Z,7.38
2022-08-28T22:20:14.773Z,7.55
2022-08-28T22:23:00.241Z,7.88
2022-08-28T22:25:29.490Z,8.13
2022-08-28T22:27:57.445Z,8.65
2022-08-28T22:30:25.436Z,7.47
2022-08-28T22:32:53.363Z,8.18
2022-08-28T22:35:21.139Z,8.10
2022-08-28T22:37:49.120Z,7.78
2022-08-28T22:40:16.978Z,7.38
2022-08-28T22:42:46.175Z,6.97
2022-08-28T22:45:14.335Z,7.05
2022-08-28T22:47:42.441Z,7.68
2022-08-28T22:50:10.865Z,7.47
2022-08-28T22:52:39.137Z,5.90
2022-08-28T22:55:10.418Z,6.35
2022-08-28T22:57:40.518Z,5.63
2022-08-28T23:00:13.521Z,6.95
2022-08-28T23:02:42.197Z,6.45
2022-08-28T23:05:10.043Z,7.30
2022-08-28T23:07:40.757Z,7.82
2022-08-28T23:10:10.318Z,6.80
2022-08-28T23:12:38.254Z,6.32
2022-08-28T23:15:14.393Z,7.55
2022-08-28T23:17:42.865Z,6.70
2022-08-28T23:20:12.402Z,6.55
2022-08-28T23:22:40.845Z,8.43
2022-08-28T23:25:10.409Z,6.82
2022-08-28T23:27:39.636Z,6.35
2022-08-28T23:30:09.820Z,6.55
2022-08-28T23:32:38.159Z,7.10
2022-08-28T23:35:08.432Z,5.63
2022-08-28T23:37:37.509Z,5.63
2022-08-28T23:40:07.623Z,4.55
2022-08-28T23:42:35.636Z,5.30
2022-08-28T23:45:05.112Z,4.45
2022-08-28T23:47:34.757Z,4.68
2022-08-28T23:50:11.485Z,5.60
2022-08-28T23:52:39.327Z,4.20
2022-08-28T23:55:09.043Z,4.80
2022-08-28T23:57:37.818Z,4.80
